Pagina principale
METAR-TAF:

METAR-TAF

Aeroporti :

Le Havre, Francia

latitudine: 49-31N, longitudine: 000-04E, altezza: 100 m

Osservazione

Il bollettino è stato emesso 44 minuti fa, alle 19:30 UTC
Vento 19 kt da est/nord-est
Temperature 18°C
Umidità 88%
Pressione 1022 hPa
Visibilità 10 km o più
nessuna nube inferiore a 1500 m e nessun cumulonembo

METAR: LFOH 261930Z AUTO 07019KT CAVOK 18/16 Q1022

Ora: 22:14 (20:14 UTC)

Previsione

Il bollettino è stato emesso 9 ore e 14 minuti fa, alle 11:00 UTC
Previsione valida dal 26 alle 12 UTC al 27 alle 12 UTC
Vento 15 kt da nord-est
Visibilità 10 km o più
nessuna nube inferiore a 1500 m e nessun cumulonembo
Temporaneamente
dal 26 alle 12 UTC al 27 alle 02 UTC
Vento 17 kt da nord-est con raffiche fino a 27 kt

TAF: LFOH 261100Z 2612/2712 05015KT CAVOK TEMPO 2612/2702 05017G27KT

Osservazioni e previsioni meteorologiche di più di 4000 aeroporti (messaggi METAR e TAF).

Le stazioni disponibili sono rappresentate dai dischi gialli e rossi sulla carta.

Puntare il mouse per vedere il nome della stazione.

Clicca sopra per visualizzare le osservazioni e previsioni meteorologiche.

Per cambiare la mappa : fare clic sui pulsanti verdi con una croce nera per ingrandire, il pulsante verde con un trattino per diminuire, o sulla freccia verde per le mappe adiacenti.


METAR-TAF: